createdAt,value
2019-05-22T10:41:23.016Z,36.71
2019-05-22T10:43:56.211Z,34.29
2019-05-22T10:46:27.335Z,34.96
2019-05-22T10:48:59.551Z,33.54
2019-05-22T10:51:31.591Z,35.10
2019-05-22T10:54:04.067Z,35.54
2019-05-22T10:56:36.539Z,35.14
2019-05-22T10:59:10.071Z,36.01
2019-05-22T11:01:43.356Z,36.54
2019-05-22T11:04:19.363Z,35.41
2019-05-22T11:06:50.132Z,35.10
2019-05-22T11:09:25.951Z,36.22
2019-05-22T11:11:59.955Z,35.22
2019-05-22T11:14:33.231Z,33.55
2019-05-22T11:17:06.909Z,34.57
2019-05-22T11:19:39.036Z,34.89
2019-05-22T11:22:12.221Z,34.82
2019-05-22T11:24:46.632Z,34.23
2019-05-22T11:27:18.772Z,34.57
2019-05-22T11:29:50.794Z,35.43
2019-05-22T11:32:24.798Z,35.43
2019-05-22T11:34:56.541Z,35.44
2019-05-22T11:37:27.632Z,35.16
2019-05-22T11:39:59.616Z,35.20
2019-05-22T11:42:31.517Z,33.84
2019-05-22T11:45:02.290Z,33.93
2019-05-22T11:47:35.136Z,34.67
2019-05-22T11:50:06.507Z,34.36
2019-05-22T11:52:38.316Z,34.55
2019-05-22T11:55:11.159Z,34.79
2019-05-22T11:57:44.259Z,35.19
2019-05-22T12:00:16.756Z,35.21
2019-05-22T12:02:48.116Z,34.69
2019-05-22T12:05:20.550Z,33.34
2019-05-22T12:07:51.833Z,33.48
2019-05-22T12:10:24.750Z,33.63
2019-05-22T12:12:56.914Z,33.90
2019-05-22T12:15:29.892Z,34.59
2019-05-22T12:18:00.812Z,34.79
2019-05-22T12:20:32.860Z,35.49
2019-05-22T12:23:04.031Z,35.21
2019-05-22T12:25:35.830Z,35.10
2019-05-22T12:28:07.232Z,35.29
2019-05-22T12:30:41.643Z,35.79
2019-05-22T12:33:14.305Z,35.61
2019-05-22T12:35:44.971Z,35.10
2019-05-22T12:38:16.672Z,35.41
2019-05-22T12:40:47.576Z,35.56
2019-05-22T12:43:19.331Z,35.33
2019-05-22T12:45:50.192Z,35.56
2019-05-22T12:48:23.190Z,35.73
2019-05-22T12:50:55.310Z,35.40
2019-05-22T12:53:28.898Z,35.26
2019-05-22T12:56:03.750Z,35.53
2019-05-22T12:58:36.791Z,36.42
2019-05-22T13:01:09.511Z,36.46
2019-05-22T13:03:42.013Z,37.12
2019-05-22T13:06:14.810Z,37.44
2019-05-22T13:08:46.951Z,38.11
2019-05-22T13:11:19.210Z,38.17
2019-05-22T13:13:53.734Z,38.18
2019-05-22T13:16:26.770Z,37.84
2019-05-22T13:18:59.474Z,37.84
2019-05-22T13:21:35.322Z,37.79
2019-05-22T13:24:16.691Z,36.66
2019-05-22T13:26:51.279Z,35.89
2019-05-22T13:29:24.530Z,35.73
2019-05-22T13:31:57.662Z,35.89
2019-05-22T13:34:32.572Z,36.09
2019-05-22T13:37:05.712Z,36.00
2019-05-22T13:39:38.451Z,36.12
2019-05-22T13:42:13.456Z,35.77
2019-05-22T13:44:47.380Z,36.13
2019-05-22T13:47:19.515Z,35.87
2019-05-22T13:49:52.039Z,36.20
2019-05-22T13:52:25.088Z,36.27
2019-05-22T13:54:57.836Z,35.97
2019-05-22T13:57:29.191Z,36.35
2019-05-22T14:00:01.894Z,34.93
2019-05-22T14:02:34.111Z,35.76
2019-05-22T14:05:06.694Z,36.00
2019-05-22T14:07:38.802Z,35.68
2019-05-22T14:10:10.692Z,35.64
2019-05-22T14:12:42.436Z,35.49
2019-05-22T14:15:14.350Z,35.92
2019-05-22T14:17:48.150Z,35.78
2019-05-22T14:20:23.493Z,35.74
2019-05-22T14:22:54.787Z,36.05
2019-05-22T14:25:28.812Z,35.90
2019-05-22T14:28:00.655Z,35.75
2019-05-22T14:30:33.766Z,35.19
2019-05-22T14:33:06.518Z,34.88
2019-05-22T14:35:48.265Z,35.13
2019-05-22T14:38:16.824Z,35.62
2019-05-22T14:40:49.097Z,35.55
2019-05-22T14:43:23.226Z,35.90
2019-05-22T14:45:55.159Z,35.87
2019-05-22T14:48:28.567Z,35.65
2019-05-22T14:51:00.419Z,35.67
2019-05-22T14:53:32.421Z,35.52
2019-05-22T14:56:10.405Z,35.64
2019-05-22T14:58:44.424Z,35.66
2019-05-22T15:01:17.299Z,36.01
2019-05-22T15:03:50.303Z,35.30
2019-05-22T15:06:22.696Z,35.53
2019-05-22T15:08:55.479Z,36.23
2019-05-22T15:11:30.327Z,36.00
2019-05-22T15:14:02.953Z,36.21
2019-05-22T15:16:36.099Z,36.35
2019-05-22T15:19:08.989Z,35.53
2019-05-22T15:21:41.106Z,35.75
2019-05-22T15:24:13.389Z,35.79
2019-05-22T15:26:47.049Z,35.78
2019-05-22T15:29:20.042Z,35.51
2019-05-22T15:31:54.665Z,35.67
2019-05-22T15:34:29.788Z,34.94
2019-05-22T15:37:03.214Z,35.15
2019-05-22T15:39:35.267Z,35.15
2019-05-22T15:42:08.641Z,35.32
2019-05-22T15:44:42.278Z,35.05
2019-05-22T15:47:24.611Z,34.85
2019-05-22T15:49:58.108Z,34.94
2019-05-22T15:52:35.943Z,34.35
2019-05-22T15:55:09.438Z,34.71
2019-05-22T15:57:43.025Z,35.01
2019-05-22T16:00:22.877Z,34.78
2019-05-22T16:03:03.279Z,35.09
2019-05-22T16:05:39.786Z,34.84
2019-05-22T16:08:12.586Z,34.74
2019-05-22T16:10:47.861Z,34.82
2019-05-22T16:13:21.410Z,34.96
2019-05-22T16:15:55.985Z,35.18
2019-05-22T16:18:32.506Z,34.65
2019-05-22T16:21:06.531Z,34.41
2019-05-22T16:23:40.447Z,34.64
2019-05-22T16:26:14.243Z,34.86
2019-05-22T16:28:49.065Z,35.17
2019-05-22T16:31:22.347Z,35.40
2019-05-22T16:33:55.684Z,35.37
2019-05-22T16:36:29.874Z,35.25
2019-05-22T16:39:02.884Z,35.07
2019-05-22T16:41:36.264Z,35.08
2019-05-22T16:44:08.566Z,34.79
2019-05-22T16:46:42.172Z,34.92
2019-05-22T16:49:15.423Z,34.93
2019-05-22T16:51:47.844Z,34.91
2019-05-22T16:54:20.857Z,34.53
2019-05-22T16:56:53.591Z,34.43
2019-05-22T16:59:24.954Z,34.46
2019-05-22T17:02:00.330Z,34.32
2019-05-22T17:04:33.544Z,34.39
2019-05-22T17:07:06.128Z,34.53
2019-05-22T17:09:38.587Z,34.70
2019-05-22T17:12:11.644Z,34.69
2019-05-22T17:14:45.908Z,34.55
2019-05-22T17:17:20.663Z,34.64
2019-05-22T17:19:52.983Z,34.73
2019-05-22T17:22:38.817Z,34.75
2019-05-22T17:25:21.431Z,34.58
2019-05-22T17:27:56.253Z,34.33
2019-05-22T17:30:29.874Z,34.43
2019-05-22T17:33:02.182Z,34.33
2019-05-22T17:35:34.573Z,34.42
2019-05-22T17:38:07.545Z,34.39
2019-05-22T17:40:40.805Z,34.78
2019-05-22T17:43:15.367Z,34.86
2019-05-22T17:45:48.266Z,34.66
2019-05-22T17:48:22.525Z,34.59
2019-05-22T17:50:56.870Z,34.70
2019-05-22T17:53:29.604Z,35.23
2019-05-22T17:56:01.293Z,35.96
2019-05-22T17:58:33.224Z,35.91
2019-05-22T18:01:04.993Z,35.89
2019-05-22T18:03:37.505Z,35.73
2019-05-22T18:06:10.987Z,35.71
2019-05-22T18:08:42.624Z,35.48
2019-05-22T18:11:14.345Z,35.81
2019-05-22T18:14:06.087Z,36.03
2019-05-22T18:16:37.143Z,35.77
2019-05-22T18:19:08.955Z,35.83
2019-05-22T18:21:40.641Z,35.86
2019-05-22T18:24:12.704Z,35.86
2019-05-22T18:26:44.142Z,36.11
2019-05-22T18:29:16.581Z,36.46
2019-05-22T18:31:48.386Z,36.53
2019-05-22T18:34:20.270Z,36.80
2019-05-22T18:36:52.267Z,36.68
2019-05-22T18:39:24.611Z,36.83
2019-05-22T18:41:56.896Z,36.86
2019-05-22T18:44:29.803Z,37.04
2019-05-22T18:47:02.188Z,37.48
2019-05-22T18:49:35.102Z,37.41
2019-05-22T18:52:06.928Z,37.54
2019-05-22T18:54:38.385Z,37.55
2019-05-22T18:57:09.403Z,37.54
2019-05-22T18:59:41.084Z,37.93
2019-05-22T19:02:12.663Z,37.67
2019-05-22T19:04:43.979Z,37.73
2019-05-22T19:07:16.893Z,37.81
2019-05-22T19:09:48.696Z,38.18
2019-05-22T19:12:21.455Z,38.07
2019-05-22T19:14:53.301Z,38.20
2019-05-22T19:17:25.974Z,38.38
2019-05-22T19:19:57.782Z,38.37
2019-05-22T19:22:31.502Z,38.52
2019-05-22T19:25:03.026Z,38.67
2019-05-22T19:27:34.654Z,38.69
2019-05-22T19:30:07.017Z,38.73
2019-05-22T19:32:38.034Z,38.73
2019-05-22T19:35:10.813Z,38.75
2019-05-22T19:37:44.541Z,38.78
2019-05-22T19:40:18.943Z,38.97
2019-05-22T19:42:51.608Z,39.08
2019-05-22T19:45:23.252Z,39.17
2019-05-22T19:47:58.063Z,39.30
2019-05-22T19:50:31.682Z,39.28
2019-05-22T19:53:18.314Z,39.51
2019-05-22T19:55:38.923Z,39.59
2019-05-22T19:58:11.403Z,39.76
2019-05-22T20:00:43.524Z,39.77
2019-05-22T20:03:15.324Z,39.84
2019-05-22T20:05:47.535Z,39.96
2019-05-22T20:08:20.304Z,40.11
2019-05-22T20:10:52.782Z,40.35
2019-05-22T20:13:25.183Z,40.38
2019-05-22T20:15:57.243Z,40.49
2019-05-22T20:18:28.363Z,40.61
2019-05-22T20:21:00.828Z,40.72
2019-05-22T20:23:37.179Z,40.90
2019-05-22T20:26:08.803Z,40.95
2019-05-22T20:28:40.025Z,41.08
2019-05-22T20:31:12.625Z,41.30
2019-05-22T20:33:45.044Z,41.39
2019-05-22T20:36:17.504Z,42.20
2019-05-22T20:38:50.523Z,42.21
2019-05-22T20:41:22.044Z,42.23
2019-05-22T20:43:55.163Z,43.17
2019-05-22T20:46:27.083Z,42.63
2019-05-22T20:49:01.521Z,42.77
2019-05-22T20:51:33.432Z,42.84
2019-05-22T20:54:06.448Z,42.79
2019-05-22T20:56:43.483Z,42.86
2019-05-22T20:59:16.482Z,43.00
2019-05-22T21:01:49.643Z,43.06
2019-05-22T21:04:24.825Z,43.11
2019-05-22T21:07:00.603Z,43.29
2019-05-22T21:09:35.844Z,43.42
2019-05-22T21:12:09.363Z,43.51
2019-05-22T21:14:42.543Z,43.65
2019-05-22T21:17:15.290Z,43.60
2019-05-22T21:19:49.283Z,43.60
2019-05-22T21:22:24.522Z,43.68
2019-05-22T21:24:57.004Z,43.65
2019-05-22T21:27:31.110Z,43.93
2019-05-22T21:30:04.303Z,44.17
2019-05-22T21:32:38.623Z,44.17
2019-05-22T21:35:12.064Z,44.26
2019-05-22T21:37:43.283Z,44.39
2019-05-22T21:40:16.293Z,44.43
2019-05-22T21:42:50.138Z,44.57
2019-05-22T21:45:23.252Z,45.02
2019-05-22T21:47:56.785Z,45.42
2019-05-22T21:50:30.286Z,46.77
2019-05-22T21:53:04.873Z,45.91
2019-05-22T21:55:39.763Z,45.87
2019-05-22T21:58:12.523Z,46.13
2019-05-22T22:01:05.774Z,46.03
2019-05-22T22:03:41.803Z,46.16
2019-05-22T22:06:17.109Z,46.20
2019-05-22T22:08:49.346Z,46.45
2019-05-22T22:11:22.885Z,47.15
2019-05-22T22:13:55.091Z,47.53
2019-05-22T22:16:27.742Z,48.53
2019-05-22T22:19:00.205Z,48.34
2019-05-22T22:21:33.965Z,48.11
2019-05-22T22:24:06.131Z,48.12
2019-05-22T22:26:38.725Z,48.32
2019-05-22T22:29:11.613Z,48.08
2019-05-22T22:31:47.892Z,48.07
2019-05-22T22:34:26.059Z,48.21
2019-05-22T22:36:59.636Z,48.34
2019-05-22T22:39:33.164Z,48.44
2019-05-22T22:42:07.927Z,48.69
2019-05-22T22:44:40.727Z,48.39
2019-05-22T22:47:17.047Z,48.54
2019-05-22T22:49:49.831Z,48.63
2019-05-22T22:52:22.687Z,48.64
2019-05-22T22:54:55.348Z,48.76
2019-05-22T22:57:28.243Z,48.66
2019-05-22T23:00:00.584Z,48.69
2019-05-22T23:02:35.450Z,48.69
2019-05-22T23:05:09.724Z,48.77
2019-05-22T23:07:43.019Z,48.77
2019-05-22T23:10:22.239Z,48.87
2019-05-22T23:12:57.443Z,49.00
2019-05-22T23:15:30.367Z,49.20
2019-05-22T23:18:03.996Z,49.30
2019-05-22T23:20:44.545Z,49.33
2019-05-22T23:23:14.383Z,49.54
2019-05-22T23:25:46.947Z,49.44
2019-05-22T23:28:34.270Z,49.94
2019-05-22T23:31:02.173Z,50.29
2019-05-22T23:33:36.379Z,50.44
2019-05-22T23:36:12.168Z,51.10
2019-05-22T23:38:45.749Z,50.84
2019-05-22T23:41:17.695Z,50.89
2019-05-22T23:43:53.888Z,51.99
2019-05-22T23:46:29.592Z,51.71
2019-05-22T23:49:01.538Z,51.55
2019-05-22T23:51:33.456Z,53.11
2019-05-22T23:54:06.420Z,54.26
2019-05-22T23:56:39.351Z,52.89
2019-05-22T23:59:12.190Z,52.74
